createdAt,value
2018-07-05T00:02:28.798Z,58.71
2018-07-05T00:05:08.860Z,58.53
2018-07-05T00:07:49.116Z,58.29
2018-07-05T00:10:28.960Z,58.33
2018-07-05T00:13:09.414Z,58.08
2018-07-05T00:15:49.455Z,58.24
2018-07-05T00:18:29.633Z,58.08
2018-07-05T00:21:09.657Z,58.15
2018-07-05T00:23:50.037Z,57.92
2018-07-05T00:26:29.983Z,58.01
2018-07-05T00:29:10.373Z,57.66
2018-07-05T00:31:50.178Z,57.91
2018-07-05T00:34:30.148Z,57.97
2018-07-05T00:37:10.213Z,58.06
2018-07-05T00:39:50.468Z,58.08
2018-07-05T00:42:30.290Z,58.13
2018-07-05T00:45:10.287Z,57.82
2018-07-05T00:47:50.198Z,57.70
2018-07-05T00:50:29.990Z,57.75
2018-07-05T00:53:09.885Z,57.96
2018-07-05T00:55:50.462Z,57.54
2018-07-05T00:58:30.401Z,58.14
2018-07-05T01:01:10.531Z,57.69
2018-07-05T01:03:50.521Z,57.72
2018-07-05T01:06:30.898Z,57.68
2018-07-05T01:09:10.725Z,57.85
2018-07-05T01:11:51.341Z,57.97
2018-07-05T01:14:31.143Z,58.06
2018-07-05T01:17:11.278Z,57.91
2018-07-05T01:19:51.250Z,57.96
2018-07-05T01:22:31.451Z,57.74
2018-07-05T01:25:11.514Z,58.02
2018-07-05T01:27:51.732Z,57.89
2018-07-05T01:30:31.777Z,57.99
2018-07-05T01:33:12.069Z,58.19
2018-07-05T01:35:52.078Z,57.94
2018-07-05T01:38:32.462Z,58.08
2018-07-05T01:41:12.240Z,58.65
2018-07-05T01:43:52.210Z,58.92
2018-07-05T01:46:32.197Z,58.81
2018-07-05T01:49:12.331Z,58.76
2018-07-05T01:51:52.412Z,57.97
2018-07-05T01:54:32.497Z,58.31
2018-07-05T01:57:12.593Z,58.33
2018-07-05T01:59:52.985Z,58.63
2018-07-05T02:02:33.037Z,58.43
2018-07-05T02:05:13.136Z,58.14
2018-07-05T02:07:53.138Z,58.07
2018-07-05T02:10:33.405Z,58.45
2018-07-05T02:13:13.351Z,57.92
2018-07-05T02:15:54.031Z,58.24
2018-07-05T02:18:33.963Z,57.86
2018-07-05T02:21:14.843Z,57.50
2018-07-05T02:23:54.879Z,57.99
2018-07-05T02:26:35.113Z,57.69
2018-07-05T02:29:14.999Z,57.62
2018-07-05T02:31:55.483Z,57.47
2018-07-05T02:34:35.422Z,57.80
2018-07-05T02:37:20.913Z,57.16
2018-07-05T02:40:00.968Z,57.28
2018-07-05T02:42:41.026Z,57.52
2018-07-05T02:45:20.942Z,57.29
2018-07-05T02:48:01.531Z,57.31
2018-07-05T02:50:41.668Z,57.28
2018-07-05T02:53:21.890Z,56.97
2018-07-05T02:56:01.587Z,56.74
2018-07-05T02:58:42.154Z,56.84
2018-07-05T03:01:22.316Z,57.16
2018-07-05T03:04:02.246Z,56.74
2018-07-05T03:06:42.307Z,57.01
2018-07-05T03:09:22.574Z,56.90
2018-07-05T03:12:02.557Z,56.80
2018-07-05T03:14:43.199Z,57.12
2018-07-05T03:17:23.131Z,56.42
2018-07-05T03:20:03.671Z,56.36
2018-07-05T03:22:43.742Z,56.30
2018-07-05T03:25:23.985Z,56.23
2018-07-05T03:28:03.955Z,56.38
2018-07-05T03:30:44.138Z,56.05
2018-07-05T03:33:24.272Z,55.91
2018-07-05T03:36:04.654Z,55.96
2018-07-05T03:38:45.620Z,55.69
2018-07-05T03:41:25.535Z,55.96
2018-07-05T03:44:05.835Z,56.03
2018-07-05T03:46:45.724Z,55.54
2018-07-05T03:49:26.078Z,55.97
2018-07-05T03:52:06.002Z,55.88
2018-07-05T03:54:46.240Z,55.80
2018-07-05T03:57:25.962Z,55.89
2018-07-05T04:00:06.448Z,56.92
2018-07-05T04:02:46.380Z,56.78
2018-07-05T04:05:26.467Z,54.04
2018-07-05T04:08:06.259Z,53.73
2018-07-05T04:10:46.781Z,54.46
2018-07-05T04:13:26.797Z,54.71
2018-07-05T04:16:06.636Z,59.12
2018-07-05T04:18:46.296Z,57.48
2018-07-05T04:21:28.619Z,54.38
2018-07-05T04:24:08.663Z,55.07
2018-07-05T04:26:48.732Z,55.23
2018-07-05T04:29:28.536Z,55.83
2018-07-05T04:32:08.837Z,55.36
2018-07-05T04:34:48.869Z,56.36
2018-07-05T04:37:28.860Z,56.13
2018-07-05T04:40:08.678Z,55.72
2018-07-05T04:42:48.807Z,55.59
2018-07-05T04:45:28.665Z,55.95
2018-07-05T04:48:08.547Z,56.64
2018-07-05T04:50:48.587Z,56.82
2018-07-05T04:53:28.955Z,57.15
2018-07-05T04:56:08.878Z,57.21
2018-07-05T04:58:49.246Z,58.18
2018-07-05T05:01:29.840Z,58.08
2018-07-05T05:04:09.928Z,58.83
2018-07-05T05:06:49.824Z,58.21
2018-07-05T05:09:30.086Z,57.69
2018-07-05T05:12:10.022Z,58.08
2018-07-05T05:14:50.564Z,57.86
2018-07-05T05:17:30.555Z,57.55
2018-07-05T05:20:10.662Z,58.46
2018-07-05T05:22:50.531Z,58.03
2018-07-05T05:25:30.817Z,58.08
2018-07-05T05:28:10.650Z,57.82
2018-07-05T05:30:51.026Z,57.81
2018-07-05T05:33:30.768Z,57.74
2018-07-05T05:36:11.134Z,57.89
2018-07-05T05:38:51.136Z,57.50
2018-07-05T05:41:31.748Z,57.74
2018-07-05T05:44:11.550Z,58.00
2018-07-05T05:46:51.966Z,57.92
2018-07-05T05:49:31.998Z,57.85
2018-07-05T05:52:12.300Z,57.75
2018-07-05T05:54:52.202Z,58.03
2018-07-05T05:57:32.559Z,58.08
2018-07-05T06:00:12.634Z,57.65
2018-07-05T06:02:53.298Z,58.07
2018-07-05T06:05:33.374Z,57.70
2018-07-05T06:08:13.847Z,57.98
2018-07-05T06:10:53.598Z,57.88
2018-07-05T06:13:33.954Z,57.83
2018-07-05T06:16:13.869Z,58.04
2018-07-05T06:18:54.335Z,57.76
2018-07-05T06:21:34.279Z,57.94
2018-07-05T06:24:14.557Z,58.00
2018-07-05T06:26:54.396Z,57.57
2018-07-05T06:29:35.297Z,57.97
2018-07-05T06:32:15.419Z,57.98
2018-07-05T06:34:55.703Z,58.30
2018-07-05T06:37:35.819Z,57.74
2018-07-05T06:40:16.413Z,57.73
2018-07-05T06:42:56.444Z,58.05
2018-07-05T06:45:36.851Z,57.65
2018-07-05T06:48:16.850Z,58.02
2018-07-05T06:50:57.333Z,57.94
2018-07-05T06:53:37.175Z,58.05
2018-07-05T06:56:17.568Z,57.54
2018-07-05T06:58:57.333Z,57.55
2018-07-05T07:01:37.598Z,57.77
2018-07-05T07:04:17.502Z,57.63
2018-07-05T07:06:57.458Z,57.76
2018-07-05T07:09:37.281Z,57.21
2018-07-05T07:12:17.762Z,57.17
2018-07-05T07:14:57.601Z,57.30
2018-07-05T07:17:37.810Z,56.79
2018-07-05T07:20:17.809Z,56.59
2018-07-05T07:22:58.172Z,56.18
2018-07-05T07:25:38.117Z,56.48
2018-07-05T07:28:18.872Z,56.13
2018-07-05T07:30:59.164Z,55.90
2018-07-05T07:33:39.103Z,55.57
2018-07-05T07:36:19.154Z,55.45
2018-07-05T07:38:59.606Z,54.85
2018-07-05T07:41:39.341Z,54.83
2018-07-05T07:44:07.182Z,54.25
2018-07-05T07:46:34.564Z,54.41
2018-07-05T07:49:02.042Z,54.35
2018-07-05T07:51:30.238Z,54.09
2018-07-05T07:53:57.761Z,54.16
2018-07-05T07:56:25.217Z,53.62
2018-07-05T07:58:52.724Z,53.63
2018-07-05T08:01:20.259Z,52.93
2018-07-05T08:03:47.813Z,53.41
2018-07-05T08:06:15.726Z,53.46
2018-07-05T08:08:43.234Z,53.28
2018-07-05T08:11:10.695Z,53.46
2018-07-05T08:13:38.186Z,53.00
2018-07-05T08:16:05.664Z,52.88
2018-07-05T08:18:33.155Z,52.98
2018-07-05T08:21:00.626Z,53.09
2018-07-05T08:23:28.083Z,53.21
2018-07-05T08:25:55.540Z,52.94
2018-07-05T08:28:23.120Z,52.56
2018-07-05T08:30:50.562Z,52.84
2018-07-05T08:33:18.457Z,52.63
2018-07-05T08:35:45.994Z,52.53
2018-07-05T08:38:13.430Z,52.44
2018-07-05T08:40:40.950Z,52.26
2018-07-05T08:43:08.477Z,52.84
2018-07-05T08:45:36.037Z,52.25
2018-07-05T08:48:03.864Z,52.68
2018-07-05T08:50:31.353Z,52.31
2018-07-05T08:52:58.908Z,52.88
2018-07-05T08:55:26.398Z,52.37
2018-07-05T08:57:53.954Z,52.79
2018-07-05T09:00:21.497Z,51.83
2018-07-05T09:02:49.042Z,51.93
2018-07-05T09:05:16.506Z,51.86
2018-07-05T09:07:44.400Z,51.81
2018-07-05T09:10:11.791Z,52.37
2018-07-05T09:12:39.194Z,52.47
2018-07-05T09:15:07.078Z,51.97
2018-07-05T09:17:34.698Z,52.18
2018-07-05T09:20:02.191Z,52.10
2018-07-05T09:22:30.078Z,52.22
2018-07-05T09:24:57.628Z,51.96
2018-07-05T09:27:25.168Z,52.18
2018-07-05T09:29:52.676Z,51.75
2018-07-05T09:32:20.198Z,52.21
2018-07-05T09:34:47.639Z,52.24
2018-07-05T09:37:15.566Z,51.88
2018-07-05T09:39:49.143Z,52.28
2018-07-05T09:42:17.819Z,52.17
2018-07-05T09:44:45.263Z,52.28
2018-07-05T09:47:12.722Z,52.31
2018-07-05T09:49:40.606Z,51.71
2018-07-05T09:52:08.054Z,51.95
2018-07-05T09:54:35.504Z,51.78
2018-07-05T09:57:03.501Z,51.25
2018-07-05T09:59:31.034Z,51.97
2018-07-05T10:01:58.624Z,51.29
2018-07-05T10:04:26.413Z,51.18
2018-07-05T10:06:53.922Z,51.26
2018-07-05T10:09:21.382Z,51.36
2018-07-05T10:11:49.373Z,50.82
2018-07-05T10:14:16.811Z,51.30
2018-07-05T10:16:44.253Z,51.61
2018-07-05T10:19:11.954Z,51.00
2018-07-05T10:21:39.471Z,51.20
2018-07-05T10:24:07.036Z,50.99
2018-07-05T10:26:34.825Z,51.01
2018-07-05T10:29:14.768Z,51.50
2018-07-05T10:31:54.749Z,51.36
2018-07-05T10:34:22.274Z,51.32
2018-07-05T10:36:49.720Z,51.46
2018-07-05T10:39:17.223Z,50.77
2018-07-05T10:41:57.138Z,49.20
2018-07-05T10:44:37.534Z,49.81
2018-07-05T10:47:17.614Z,49.85
2018-07-05T10:49:58.043Z,49.94
2018-07-05T10:52:38.080Z,49.71
2018-07-05T10:55:18.310Z,48.75
2018-07-05T10:57:58.365Z,48.43
2018-07-05T11:00:38.593Z,48.38
2018-07-05T11:03:18.495Z,48.50
2018-07-05T11:05:58.774Z,49.41
2018-07-05T11:08:38.570Z,49.69
2018-07-05T11:11:19.049Z,49.38
2018-07-05T11:13:58.842Z,49.85
2018-07-05T11:16:38.839Z,50.03
2018-07-05T11:19:18.718Z,49.31
2018-07-05T11:21:58.604Z,49.23
2018-07-05T11:24:38.616Z,49.48
2018-07-05T11:27:18.473Z,49.28
2018-07-05T11:29:58.322Z,49.00
2018-07-05T11:32:38.691Z,49.07
2018-07-05T11:35:18.502Z,48.85
2018-07-05T11:37:58.900Z,49.39
2018-07-05T11:40:38.834Z,48.88
2018-07-05T11:43:19.413Z,48.76
2018-07-05T11:45:59.261Z,48.32
2018-07-05T11:48:39.230Z,48.58
2018-07-05T11:51:19.253Z,49.31
2018-07-05T11:53:59.727Z,49.16
2018-07-05T11:56:39.556Z,48.96
2018-07-05T11:59:20.045Z,49.08
2018-07-05T12:01:59.938Z,47.96
2018-07-05T12:04:40.361Z,47.87
2018-07-05T12:07:20.282Z,46.54
2018-07-05T12:10:00.792Z,48.12
2018-07-05T12:12:40.610Z,48.02
2018-07-05T12:15:20.593Z,47.87
2018-07-05T12:18:00.358Z,47.70
2018-07-05T12:20:40.981Z,47.69
2018-07-05T12:23:20.920Z,47.80
2018-07-05T12:26:01.328Z,47.55
2018-07-05T12:28:41.104Z,47.07
2018-07-05T12:31:21.163Z,47.45
2018-07-05T12:34:01.039Z,47.17
2018-07-05T12:36:41.139Z,47.11
2018-07-05T12:39:21.090Z,46.77
2018-07-05T12:42:01.222Z,46.86
2018-07-05T12:44:41.237Z,46.32
2018-07-05T12:47:21.523Z,46.62
2018-07-05T12:50:01.350Z,46.41
2018-07-05T12:52:41.658Z,46.16
2018-07-05T12:55:21.558Z,46.12
2018-07-05T12:58:01.848Z,46.49
2018-07-05T13:00:41.622Z,47.04
2018-07-05T13:03:22.347Z,47.19
2018-07-05T13:06:02.174Z,47.10
2018-07-05T13:08:42.865Z,46.69
2018-07-05T13:11:22.703Z,46.86
2018-07-05T13:14:02.582Z,47.62
2018-07-05T13:16:42.384Z,46.95
2018-07-05T13:19:22.886Z,46.67
2018-07-05T13:22:02.936Z,47.06
2018-07-05T13:24:42.991Z,46.89
2018-07-05T13:27:22.910Z,45.98
2018-07-05T13:30:03.059Z,47.47
2018-07-05T13:32:42.917Z,46.59
2018-07-05T13:35:23.316Z,46.56
2018-07-05T13:38:03.453Z,46.99
2018-07-05T13:40:43.623Z,46.37
2018-07-05T13:43:26.408Z,46.98
2018-07-05T13:46:06.895Z,46.10
2018-07-05T13:48:46.827Z,46.70
2018-07-05T13:51:27.312Z,46.81
2018-07-05T13:54:07.551Z,46.98
2018-07-05T13:56:47.818Z,46.92
2018-07-05T13:59:27.754Z,46.72
2018-07-05T14:02:07.761Z,46.19
2018-07-05T14:04:47.476Z,46.55
2018-07-05T14:07:27.817Z,46.58
2018-07-05T14:10:07.775Z,45.64
2018-07-05T14:12:47.711Z,46.43
2018-07-05T14:15:27.660Z,46.74
2018-07-05T14:18:07.684Z,45.69
2018-07-05T14:20:47.691Z,45.67
2018-07-05T14:23:27.658Z,45.69
2018-07-05T14:26:07.887Z,45.53
2018-07-05T14:28:48.071Z,45.18
2018-07-05T14:31:28.004Z,45.40
2018-07-05T14:34:08.330Z,44.99
2018-07-05T14:36:48.283Z,45.40
2018-07-05T14:39:28.378Z,45.41
2018-07-05T14:42:08.302Z,46.42
2018-07-05T14:44:49.201Z,45.93
2018-07-05T14:47:29.291Z,45.76
2018-07-05T14:50:09.602Z,45.71
2018-07-05T14:52:49.531Z,46.08
2018-07-05T14:55:29.815Z,45.05
2018-07-05T14:58:09.733Z,45.36
2018-07-05T15:00:50.126Z,45.52
2018-07-05T15:03:29.962Z,45.23
2018-07-05T15:06:10.481Z,45.65
2018-07-05T15:08:50.250Z,46.05
2018-07-05T15:11:30.543Z,46.05
2018-07-05T15:14:10.467Z,45.99
2018-07-05T15:16:51.293Z,46.04
2018-07-05T15:19:31.176Z,46.12
2018-07-05T15:22:11.659Z,46.34
2018-07-05T15:24:51.600Z,46.49
2018-07-05T15:27:31.768Z,46.38
2018-07-05T15:30:11.562Z,46.50
2018-07-05T15:32:52.003Z,46.81
2018-07-05T15:35:31.931Z,46.98
2018-07-05T15:38:12.418Z,46.70
2018-07-05T15:40:52.576Z,46.74
2018-07-05T15:43:32.846Z,47.17
2018-07-05T15:46:12.751Z,46.43
2018-07-05T15:48:53.255Z,47.18
2018-07-05T15:51:33.086Z,46.19
2018-07-05T15:54:13.064Z,45.87
2018-07-05T15:56:53.003Z,46.29
2018-07-05T15:59:32.949Z,46.89
2018-07-05T16:02:12.969Z,46.48
2018-07-05T16:04:53.157Z,46.85
2018-07-05T16:07:33.190Z,46.89
2018-07-05T16:10:13.500Z,48.89
2018-07-05T16:12:53.501Z,48.69
2018-07-05T16:15:33.672Z,48.36
2018-07-05T16:18:13.606Z,48.39
2018-07-05T16:20:53.709Z,48.31
2018-07-05T16:23:33.625Z,48.53
2018-07-05T16:26:13.896Z,47.90
2018-07-05T16:28:53.924Z,48.13
2018-07-05T16:31:34.219Z,49.67
2018-07-05T16:34:14.236Z,49.47
2018-07-05T16:36:54.564Z,49.29
2018-07-05T16:39:34.438Z,49.20
2018-07-05T16:42:14.464Z,49.82
2018-07-05T16:44:54.508Z,49.31
2018-07-05T16:47:34.941Z,50.06
2018-07-05T16:50:14.858Z,49.15
2018-07-05T16:52:55.147Z,48.41
2018-07-05T16:55:34.982Z,49.17
2018-07-05T16:58:14.953Z,49.10
2018-07-05T17:00:54.874Z,49.03
2018-07-05T17:03:35.357Z,48.88
2018-07-05T17:06:15.200Z,49.19
2018-07-05T17:08:55.980Z,49.07
2018-07-05T17:11:36.014Z,49.28
2018-07-05T17:14:16.069Z,49.10
2018-07-05T17:16:55.945Z,48.50
2018-07-05T17:19:35.851Z,47.70
2018-07-05T17:29:14.387Z,46.36
2018-07-05T17:31:54.060Z,46.08
2018-07-05T17:34:34.446Z,47.84
2018-07-05T17:37:14.375Z,48.13
2018-07-05T17:39:54.451Z,47.94
2018-07-05T17:42:34.196Z,47.84
2018-07-05T17:45:14.766Z,48.66
2018-07-05T17:47:54.820Z,48.37
2018-07-05T17:50:34.569Z,48.04
2018-07-05T17:53:14.605Z,47.80
2018-07-05T17:55:55.485Z,49.08
2018-07-05T17:58:35.335Z,49.13
2018-07-05T18:01:15.515Z,49.27
2018-07-05T18:03:55.322Z,49.36
2018-07-05T18:06:35.805Z,49.18
2018-07-05T18:09:15.741Z,49.85
2018-07-05T18:11:56.075Z,49.14
2018-07-05T18:14:35.957Z,49.78
2018-07-05T18:17:15.892Z,53.57
2018-07-05T18:19:55.959Z,50.67
2018-07-05T18:29:34.404Z,53.37
2018-07-05T18:32:14.474Z,54.08
2018-07-05T18:34:54.425Z,52.31
2018-07-05T18:37:34.898Z,51.11
2018-07-05T18:40:14.975Z,50.87
2018-07-05T18:42:54.889Z,50.92
2018-07-05T18:45:35.288Z,51.35
2018-07-05T18:48:15.354Z,52.37
2018-07-05T18:50:55.494Z,52.55
2018-07-05T18:53:35.355Z,51.77
2018-07-05T18:56:15.203Z,51.98
2018-07-05T18:58:55.207Z,51.53
2018-07-05T19:01:35.391Z,50.83
2018-07-05T19:04:15.322Z,51.72
2018-07-05T19:06:55.706Z,50.97
2018-07-05T19:09:35.539Z,49.82
2018-07-05T19:12:15.541Z,50.08
2018-07-05T19:14:55.563Z,49.78
2018-07-05T19:17:35.570Z,49.76
2018-07-05T19:20:15.482Z,49.65
2018-07-05T19:22:55.844Z,49.56
2018-07-05T19:25:35.507Z,49.61
2018-07-05T19:28:15.653Z,49.61
2018-07-05T19:30:55.567Z,49.07
2018-07-05T19:33:35.719Z,49.06
2018-07-05T19:36:15.765Z,49.39
2018-07-05T19:38:55.750Z,49.19
2018-07-05T19:44:09.243Z,50.29
2018-07-05T19:46:49.210Z,50.28
2018-07-05T19:49:29.671Z,50.53
2018-07-05T19:52:09.828Z,50.59
2018-07-05T19:54:50.160Z,50.37
2018-07-05T19:57:30.070Z,49.87
2018-07-05T20:00:11.106Z,49.72
2018-07-05T20:02:51.082Z,49.45
2018-07-05T20:05:31.009Z,49.07
2018-07-05T20:08:11.092Z,49.51
2018-07-05T20:10:55.558Z,49.19
2018-07-05T20:13:35.503Z,49.57
2018-07-05T20:16:15.550Z,49.42
2018-07-05T20:18:55.676Z,49.32
2018-07-05T20:21:36.691Z,49.50
2018-07-05T20:24:16.485Z,49.11
2018-07-05T20:26:56.996Z,47.59
2018-07-05T20:29:37.022Z,47.33
2018-07-05T20:32:17.272Z,47.42
2018-07-05T20:34:57.238Z,47.74
2018-07-05T20:37:37.009Z,46.77
2018-07-05T20:40:16.990Z,47.00
2018-07-05T20:42:57.485Z,46.81
2018-07-05T20:45:37.462Z,46.70
2018-07-05T20:48:17.804Z,47.21
2018-07-05T20:50:57.888Z,46.70
2018-07-05T20:53:37.701Z,47.40
2018-07-05T20:56:17.531Z,47.64
2018-07-05T20:58:57.837Z,47.81
2018-07-05T21:01:37.886Z,49.03
2018-07-05T21:04:18.359Z,47.69
2018-07-05T21:06:58.407Z,48.31
2018-07-05T21:09:38.873Z,49.92
2018-07-05T21:12:18.906Z,53.08
2018-07-05T21:14:59.187Z,54.44
2018-07-05T21:17:38.887Z,51.32
2018-07-05T21:20:19.185Z,50.78
2018-07-05T21:22:59.213Z,50.25
2018-07-05T21:25:39.800Z,49.61
2018-07-05T21:28:19.731Z,49.05
2018-07-05T21:30:59.615Z,48.45
2018-07-05T21:33:39.553Z,48.40
2018-07-05T21:36:20.193Z,48.28
2018-07-05T21:39:00.371Z,49.17
2018-07-05T21:41:44.200Z,48.77
2018-07-05T21:44:24.075Z,48.78
2018-07-05T21:47:06.465Z,48.29
2018-07-05T21:49:47.327Z,48.79
2018-07-05T21:52:28.509Z,48.79
2018-07-05T21:55:08.687Z,48.52
2018-07-05T21:57:48.885Z,48.53
2018-07-05T22:00:28.896Z,48.44
2018-07-05T22:03:09.065Z,49.09
2018-07-05T22:05:50.292Z,48.89
2018-07-05T22:08:30.776Z,49.02
2018-07-05T22:11:10.737Z,48.89
2018-07-05T22:13:52.558Z,48.69
2018-07-05T22:16:35.263Z,49.10
2018-07-05T22:19:20.818Z,49.20
2018-07-05T22:22:06.085Z,48.69
2018-07-05T22:24:51.726Z,49.39
2018-07-05T22:27:36.935Z,49.48
2018-07-05T22:30:22.029Z,49.63
2018-07-05T22:33:02.008Z,49.14
2018-07-05T22:35:43.375Z,49.32
2018-07-05T22:38:23.144Z,49.13
2018-07-05T22:41:04.159Z,49.01
2018-07-05T22:43:43.926Z,49.02
2018-07-05T22:46:24.520Z,48.70
2018-07-05T22:49:04.585Z,49.08
2018-07-05T22:51:44.962Z,48.76
2018-07-05T22:54:25.086Z,49.25
2018-07-05T22:57:05.618Z,49.10
2018-07-05T22:59:45.678Z,49.46
2018-07-05T23:02:25.771Z,49.70
2018-07-05T23:05:05.904Z,49.72
2018-07-05T23:07:46.279Z,49.77
2018-07-05T23:10:26.085Z,49.55
2018-07-05T23:13:07.986Z,49.76
2018-07-05T23:15:50.322Z,49.86
2018-07-05T23:18:30.447Z,49.85
2018-07-05T23:21:10.299Z,49.61
2018-07-05T23:23:50.694Z,49.91
2018-07-05T23:26:31.203Z,50.19
2018-07-05T23:29:11.103Z,50.43
2018-07-05T23:31:51.041Z,50.73
2018-07-05T23:34:31.587Z,50.66
2018-07-05T23:37:11.638Z,50.91
2018-07-05T23:39:52.149Z,51.05
2018-07-05T23:42:32.117Z,51.19
2018-07-05T23:45:12.670Z,51.24
